createdAt,value
2018-11-01T00:04:00.923Z,5.90
2018-11-01T00:09:08.455Z,5.80
2018-11-01T00:14:14.141Z,5.60
2018-11-01T00:19:18.803Z,5.50
2018-11-01T00:24:23.888Z,5.40
2018-11-01T00:29:28.657Z,5.30
2018-11-01T00:34:34.418Z,5.20
2018-11-01T00:39:39.370Z,5.30
2018-11-01T00:44:43.990Z,5.30
2018-11-01T00:49:49.485Z,5.10
2018-11-01T00:54:54.219Z,5.20
2018-11-01T00:59:59.381Z,5.20
2018-11-01T01:05:03.966Z,5.10
2018-11-01T01:10:11.517Z,5.20
2018-11-01T01:15:22.672Z,5.10
2018-11-01T01:20:27.608Z,5.10
2018-11-01T01:25:32.218Z,4.90
2018-11-01T01:30:36.902Z,4.80
2018-11-01T01:35:41.910Z,4.80
2018-11-01T01:40:46.369Z,4.90
2018-11-01T01:45:50.974Z,4.90
2018-11-01T01:50:56.206Z,4.80
2018-11-01T01:56:00.679Z,4.80
2018-11-01T02:01:05.499Z,4.80
2018-11-01T02:06:10.037Z,4.60
2018-11-01T02:11:14.676Z,4.70
2018-11-01T02:16:25.667Z,4.70
2018-11-01T02:21:30.163Z,4.60
2018-11-01T02:26:34.666Z,4.50
2018-11-01T02:31:39.217Z,4.60
2018-11-01T02:36:43.826Z,4.50
2018-11-01T02:41:48.443Z,4.70
2018-11-01T02:46:53.575Z,4.70
2018-11-01T02:51:58.379Z,4.70
2018-11-01T02:57:02.845Z,4.70
2018-11-01T03:02:07.521Z,4.70
2018-11-01T03:07:12.583Z,4.70
2018-11-01T03:12:17.096Z,4.80
2018-11-01T03:17:21.546Z,4.70
2018-11-01T03:22:25.975Z,4.70
2018-11-01T03:27:30.744Z,4.70
2018-11-01T03:32:35.225Z,4.80
2018-11-01T03:37:40.047Z,4.80
2018-11-01T03:42:48.206Z,4.80
2018-11-01T03:47:52.985Z,4.70
2018-11-01T03:52:58.429Z,4.80
2018-11-01T03:58:03.079Z,4.70
2018-11-01T04:03:07.743Z,4.70
2018-11-01T04:08:12.306Z,4.70
2018-11-01T04:13:16.900Z,4.90
2018-11-01T04:18:21.451Z,5.00
2018-11-01T04:23:26.677Z,5.00
2018-11-01T04:28:31.399Z,5.10
2018-11-01T04:33:36.248Z,5.00
2018-11-01T04:38:40.581Z,5.00
2018-11-01T04:43:45.079Z,5.10
2018-11-01T04:48:50.336Z,5.10
2018-11-01T04:53:55.066Z,5.10
2018-11-01T04:59:00.148Z,5.10
2018-11-01T05:04:04.940Z,5.10
2018-11-01T05:09:09.355Z,5.00
2018-11-01T05:14:13.703Z,5.00
2018-11-01T05:19:18.338Z,5.00
2018-11-01T05:24:23.154Z,5.00
2018-11-01T05:29:27.681Z,5.10
2018-11-01T05:34:33.103Z,5.10
2018-11-01T05:39:37.446Z,5.20
2018-11-01T05:44:48.367Z,5.30
2018-11-01T05:49:53.515Z,5.50
2018-11-01T05:54:57.934Z,5.50
2018-11-01T06:00:03.521Z,5.50
2018-11-01T06:05:09.101Z,5.50
2018-11-01T06:10:14.152Z,5.40
2018-11-01T06:15:18.796Z,5.40
2018-11-01T06:20:23.373Z,5.40
2018-11-01T06:25:27.918Z,5.40
2018-11-01T06:30:33.738Z,5.40
2018-11-01T06:35:43.972Z,5.40
2018-11-01T06:40:49.067Z,5.50
2018-11-01T06:45:53.660Z,5.50
2018-11-01T06:50:58.208Z,5.60
2018-11-01T06:56:02.718Z,5.60
2018-11-01T07:01:07.477Z,5.60
2018-11-01T07:06:11.970Z,5.70
2018-11-01T07:11:16.482Z,5.70
2018-11-01T07:16:21.036Z,5.80
2018-11-01T07:21:25.718Z,5.80
2018-11-01T07:26:31.261Z,6.00
2018-11-01T07:31:35.895Z,6.10
2018-11-01T07:36:40.400Z,6.20
2018-11-01T07:41:44.969Z,6.40
2018-11-01T07:46:49.976Z,6.40
2018-11-01T07:51:54.450Z,6.50
2018-11-01T07:56:59.491Z,6.70
2018-11-01T08:02:04.003Z,6.80
2018-11-01T08:07:09.060Z,6.60
2018-11-01T08:12:13.594Z,6.50
2018-11-01T08:17:18.281Z,6.50
2018-11-01T08:22:22.948Z,6.60
2018-11-01T08:27:27.737Z,6.80
2018-11-01T08:32:32.902Z,6.80
2018-11-01T08:37:37.806Z,7.10
2018-11-01T08:42:43.145Z,7.20
2018-11-01T08:47:47.796Z,7.40
2018-11-01T08:52:52.323Z,7.40
2018-11-01T08:57:56.577Z,7.60
2018-11-01T09:03:01.242Z,7.80
2018-11-01T09:08:05.999Z,7.80
2018-11-01T09:13:11.136Z,7.70
2018-11-01T09:18:16.835Z,7.70
2018-11-01T09:23:22.254Z,7.60
2018-11-01T09:28:27.492Z,7.80
2018-11-01T09:33:32.442Z,8.30
2018-11-01T09:38:36.983Z,9.00
2018-11-01T09:43:41.288Z,9.20
2018-11-01T09:48:45.703Z,9.40
2018-11-01T09:53:50.955Z,9.70
2018-11-01T09:58:55.509Z,9.90
2018-11-01T10:04:00.556Z,10.10
2018-11-01T10:09:06.213Z,10.60
2018-11-01T10:14:10.595Z,10.60
2018-11-01T10:19:16.350Z,11.00
2018-11-01T10:24:21.890Z,13.30
2018-11-01T10:29:26.431Z,14.30
2018-11-01T10:34:31.146Z,17.00
2018-11-01T10:39:35.802Z,18.40
2018-11-01T10:44:41.091Z,19.40
2018-11-01T10:49:54.988Z,20.30
2018-11-01T10:54:59.323Z,21.30
2018-11-01T11:00:04.168Z,20.60
2018-11-01T11:05:09.237Z,19.80
2018-11-01T11:10:14.703Z,20.90
2018-11-01T11:15:19.379Z,20.60
2018-11-01T11:20:24.320Z,20.30
2018-11-01T11:25:28.761Z,21.40
2018-11-01T11:30:33.411Z,21.10
2018-11-01T11:35:38.934Z,21.30
2018-11-01T11:40:43.605Z,21.00
2018-11-01T11:45:48.752Z,20.50
2018-11-01T11:50:54.702Z,21.80
2018-11-01T11:56:00.344Z,21.60
2018-11-01T12:01:07.162Z,22.20
2018-11-01T12:06:12.839Z,21.30
2018-11-01T12:11:17.436Z,22.20
2018-11-01T12:16:22.216Z,23.00
2018-11-01T12:21:27.379Z,22.50
2018-11-01T12:26:32.106Z,23.30
2018-11-01T12:31:36.603Z,22.00
2018-11-01T12:36:41.357Z,19.80
2018-11-01T12:41:46.055Z,17.10
2018-11-01T12:46:51.331Z,15.90
2018-11-01T12:51:55.913Z,15.00
2018-11-01T12:57:00.837Z,15.10
2018-11-01T13:02:06.265Z,14.50
2018-11-01T13:07:10.828Z,14.30
2018-11-01T13:12:15.229Z,13.80
2018-11-01T13:17:22.734Z,13.90
2018-11-01T13:22:27.372Z,13.70
2018-11-01T13:27:32.369Z,13.70
2018-11-01T13:32:36.714Z,13.90
2018-11-01T13:37:41.309Z,14.10
2018-11-01T13:42:46.613Z,13.70
2018-11-01T13:47:51.827Z,13.80
2018-11-01T13:52:56.362Z,13.60
2018-11-01T13:58:00.694Z,13.40
2018-11-01T14:03:05.218Z,13.50
2018-11-01T14:08:09.795Z,13.50
2018-11-01T14:13:14.283Z,13.40
2018-11-01T14:18:18.509Z,13.30
2018-11-01T14:23:23.040Z,13.40
2018-11-01T14:28:27.543Z,13.60
2018-11-01T14:33:32.114Z,13.60
2018-11-01T14:38:37.744Z,13.60
2018-11-01T14:43:42.232Z,13.60
2018-11-01T14:48:47.345Z,13.60
2018-11-01T14:53:52.342Z,13.90
2018-11-01T14:58:58.178Z,13.40
2018-11-01T15:04:01.330Z,12.90
2018-11-01T15:09:08.861Z,12.50
2018-11-01T15:14:13.175Z,12.40
2018-11-01T15:19:17.890Z,12.20
2018-11-01T15:24:22.981Z,11.90
2018-11-01T15:29:27.344Z,11.40
2018-11-01T15:34:32.617Z,11.40
2018-11-01T15:39:36.906Z,11.30
2018-11-01T15:44:42.235Z,11.10
2018-11-01T15:49:46.821Z,10.70
2018-11-01T15:54:51.286Z,10.50
2018-11-01T15:59:55.560Z,10.20
2018-11-01T16:04:59.956Z,9.90
2018-11-01T16:10:06.354Z,9.50
2018-11-01T16:15:13.556Z,9.50
2018-11-01T16:20:18.201Z,9.10
2018-11-01T16:25:25.114Z,8.80
2018-11-01T16:30:30.904Z,8.80
2018-11-01T16:35:35.343Z,8.80
2018-11-01T16:40:39.973Z,8.80
2018-11-01T16:45:44.559Z,8.50
2018-11-01T16:50:49.370Z,8.20
2018-11-01T16:55:54.030Z,8.10
2018-11-01T17:00:58.566Z,8.00
2018-11-01T17:06:04.891Z,7.90
2018-11-01T17:11:09.621Z,7.80
2018-11-01T17:16:14.220Z,7.80
2018-11-01T17:21:19.607Z,7.60
2018-11-01T17:26:26.598Z,7.50
2018-11-01T17:31:31.100Z,7.40
2018-11-01T17:36:36.022Z,7.50
2018-11-01T17:41:40.930Z,7.40
2018-11-01T17:46:46.707Z,7.10
2018-11-01T17:51:54.189Z,7.30
2018-11-01T17:56:59.336Z,7.50
2018-11-01T18:02:04.668Z,7.60
2018-11-01T18:07:09.192Z,7.70
2018-11-01T18:12:13.752Z,7.40
2018-11-01T18:17:18.413Z,7.50
2018-11-01T18:22:23.548Z,7.40
2018-11-01T18:27:28.580Z,7.50
2018-11-01T18:32:36.082Z,7.60
2018-11-01T18:37:41.335Z,8.00
2018-11-01T18:42:46.824Z,8.30
2018-11-01T18:47:51.396Z,8.70
2018-11-01T18:52:55.918Z,8.80
2018-11-01T18:58:01.159Z,8.90
2018-11-01T19:03:06.974Z,8.90
2018-11-01T19:08:12.473Z,9.00
2018-11-01T19:13:17.135Z,9.30
2018-11-01T19:18:21.821Z,9.50
2018-11-01T19:23:26.516Z,9.40
2018-11-01T19:28:31.283Z,9.20
2018-11-01T19:33:36.316Z,9.30
2018-11-01T19:38:41.016Z,9.30
2018-11-01T19:43:45.785Z,9.50
2018-11-01T19:48:50.427Z,9.20
2018-11-01T19:53:55.110Z,8.80
2018-11-01T19:59:00.155Z,8.80
2018-11-01T20:04:05.404Z,8.80
2018-11-01T20:09:10.369Z,8.50
2018-11-01T20:14:15.105Z,8.40
2018-11-01T20:19:20.070Z,8.20
2018-11-01T20:24:24.907Z,8.10
2018-11-01T20:29:29.591Z,8.10
2018-11-01T20:34:35.362Z,7.90
2018-11-01T20:39:40.197Z,7.90
2018-11-01T20:44:45.040Z,7.60
2018-11-01T20:49:50.028Z,7.60
2018-11-01T20:54:54.688Z,7.50
2018-11-01T20:59:59.330Z,7.20
2018-11-01T21:05:08.324Z,6.90
2018-11-01T21:10:32.632Z,6.80
2018-11-01T21:15:37.490Z,6.60
2018-11-01T21:20:42.326Z,6.50
2018-11-01T21:25:47.084Z,6.30
2018-11-01T21:30:52.149Z,6.20
2018-11-01T21:35:56.832Z,6.10
2018-11-01T21:41:01.847Z,5.90
2018-11-01T21:46:07.170Z,5.90
2018-11-01T21:51:19.235Z,5.90
2018-11-01T21:56:24.428Z,5.90
2018-11-01T22:01:30.555Z,5.80
2018-11-01T22:06:35.287Z,5.80
2018-11-01T22:11:40.697Z,5.70
2018-11-01T22:16:47.550Z,5.70
2018-11-01T22:21:52.469Z,5.60
2018-11-01T22:26:57.366Z,5.50
2018-11-01T22:32:02.876Z,5.50
2018-11-01T22:37:07.986Z,5.40
2018-11-01T22:42:13.672Z,5.40
2018-11-01T22:47:19.534Z,5.60
2018-11-01T22:52:24.457Z,5.50
2018-11-01T22:57:30.275Z,5.60
2018-11-01T23:02:35.632Z,5.60
2018-11-01T23:07:41.025Z,5.50
2018-11-01T23:12:45.762Z,5.50
2018-11-01T23:17:50.895Z,5.60
2018-11-01T23:22:55.289Z,5.60
2018-11-01T23:27:59.868Z,5.60
2018-11-01T23:38:44.988Z,5.60
2018-11-01T23:43:54.555Z,5.40
2018-11-01T23:49:04.590Z,5.20
2018-11-01T23:54:09.246Z,5.40
2018-11-01T23:59:14.464Z,5.20
